Parish, New York
Current Conditions -  °F | °C
As of 8:28 PM on Wednesday 26 Nov 2014 (Local Time) from KFZY Reporting Station
Light Snow Light Snow  
Wind Chill: -6°   Ceiling: 3400
Heat Index: -2°   Visibility: 2.5mi
Dew Point: -4°   Wind: 9mph
Humidity: 82%   Direction: 10°N
Pressure: 30.03"   Gusts: NA
Location:  43.41°N, 76.13°W
Report Text: KFZY 270128Z AUTO 01008KT 2 1/2SM -SN FEW010 OVC034 M02/M04 A3003 RMK AO2 P0000 T10171044
Loading
Personal Weather Stations






























Interactive Weather Map New forecast layout! Learn more

10-Day Weather Forecast

Advertisements
Track Severe Weather on mobile